createdAt,value
2023-02-17T00:00:11.366Z,3.38
2023-02-17T00:01:35.072Z,3.42
2023-02-17T00:02:34.671Z,3.35
2023-02-17T00:03:31.512Z,2.96
2023-02-17T00:04:32.344Z,3.13
2023-02-17T00:05:34.889Z,2.37
2023-02-17T00:06:32.434Z,3.67
2023-02-17T00:07:33.860Z,3.46
2023-02-17T00:08:33.076Z,3.20
2023-02-17T00:09:29.900Z,2.44
2023-02-17T00:10:29.416Z,2.83
2023-02-17T00:11:30.189Z,3.82
2023-02-17T00:12:27.320Z,3.69
2023-02-17T00:13:24.423Z,4.23
2023-02-17T00:14:21.190Z,3.37
2023-02-17T00:15:17.917Z,4.58
2023-02-17T00:16:26.886Z,4.38
2023-02-17T00:17:25.762Z,4.27
2023-02-17T00:18:22.945Z,4.26
2023-02-17T00:19:29.798Z,3.25
2023-02-17T00:20:31.469Z,3.01
2023-02-17T00:21:31.181Z,4.57
2023-02-17T00:22:28.047Z,4.32
2023-02-17T00:23:27.161Z,3.99
2023-02-17T00:24:25.581Z,3.81
2023-02-17T00:25:22.366Z,3.67
2023-02-17T00:26:23.371Z,3.26
2023-02-17T00:27:20.188Z,1.85
2023-02-17T00:28:17.038Z,2.10
2023-02-17T00:29:14.563Z,3.53
2023-02-17T00:30:11.583Z,3.28
2023-02-17T00:31:11.692Z,3.58
2023-02-17T00:32:10.574Z,2.81
2023-02-17T00:33:07.414Z,1.83
2023-02-17T00:34:04.304Z,3.01
2023-02-17T00:35:01.027Z,3.32
2023-02-17T00:35:57.791Z,3.64
2023-02-17T00:36:57.010Z,3.27
2023-02-17T00:37:53.782Z,3.35
2023-02-17T00:38:52.788Z,3.81
2023-02-17T00:39:49.572Z,3.46
2023-02-17T00:40:48.869Z,3.13
2023-02-17T00:41:45.662Z,3.95
2023-02-17T00:42:45.402Z,3.05
2023-02-17T00:43:44.179Z,3.37
2023-02-17T00:44:40.926Z,3.33
2023-02-17T00:45:39.712Z,3.32
2023-02-17T00:46:36.596Z,3.30
2023-02-17T00:47:36.348Z,0.98
2023-02-17T00:48:33.483Z,3.42
2023-02-17T00:49:32.975Z,3.68
2023-02-17T00:50:31.643Z,3.79
2023-02-17T00:51:28.425Z,3.76
2023-02-17T00:52:25.148Z,3.98
2023-02-17T00:53:25.257Z,2.67
2023-02-17T00:54:24.781Z,4.87
2023-02-17T00:55:22.972Z,4.45
2023-02-17T00:56:19.702Z,4.70
2023-02-17T00:57:16.594Z,3.73
2023-02-17T00:58:16.071Z,2.96
2023-02-17T00:59:15.521Z,3.78
2023-02-17T01:00:15.236Z,4.24
2023-02-17T01:01:12.425Z,4.34
2023-02-17T01:02:09.288Z,4.10
2023-02-17T01:03:06.449Z,3.73
2023-02-17T01:04:05.804Z,3.83
2023-02-17T01:05:02.585Z,3.54
2023-02-17T01:06:01.924Z,3.64
2023-02-17T01:06:58.744Z,3.98
2023-02-17T01:07:59.292Z,3.99
2023-02-17T01:08:56.190Z,3.57
2023-02-17T01:09:52.941Z,3.25
2023-02-17T01:10:50.564Z,2.78
2023-02-17T01:11:47.514Z,3.11
2023-02-17T01:12:44.322Z,2.81
2023-02-17T01:13:41.098Z,2.92
2023-02-17T01:14:39.275Z,3.57
2023-02-17T01:15:44.756Z,3.03
2023-02-17T01:16:50.989Z,3.03
2023-02-17T01:17:47.691Z,3.81
2023-02-17T01:18:46.926Z,4.46
2023-02-17T01:19:43.767Z,3.60
2023-02-17T01:20:44.538Z,3.57
2023-02-17T01:21:47.474Z,3.23
2023-02-17T01:22:44.258Z,2.48
2023-02-17T01:23:42.206Z,3.58
2023-02-17T01:24:40.323Z,3.75
2023-02-17T01:25:49.032Z,4.09
2023-02-17T01:26:45.871Z,2.51
2023-02-17T01:27:45.361Z,3.02
2023-02-17T01:28:44.241Z,3.31
2023-02-17T01:29:48.867Z,1.87
2023-02-17T01:30:49.335Z,3.85
2023-02-17T01:31:46.374Z,3.90
2023-02-17T01:32:43.166Z,3.23
2023-02-17T01:33:42.396Z,3.15
2023-02-17T01:34:39.235Z,2.84
2023-02-17T01:35:36.067Z,3.60
2023-02-17T01:36:33.367Z,3.14
2023-02-17T01:37:33.344Z,3.38
2023-02-17T01:38:30.344Z,3.55
2023-02-17T01:39:27.143Z,2.25
2023-02-17T01:40:23.996Z,3.46
2023-02-17T01:41:23.846Z,3.44
2023-02-17T01:42:20.864Z,3.34
2023-02-17T01:43:18.163Z,3.10
2023-02-17T01:44:22.072Z,2.76
2023-02-17T01:45:18.726Z,2.94
2023-02-17T01:46:15.581Z,2.86
2023-02-17T01:47:13.173Z,2.72
2023-02-17T01:48:18.170Z,2.89
2023-02-17T01:49:17.685Z,3.27
2023-02-17T01:50:16.594Z,3.21
2023-02-17T01:51:19.018Z,3.85
2023-02-17T01:52:24.790Z,4.11
2023-02-17T01:53:35.393Z,2.89
2023-02-17T01:54:42.739Z,3.81
2023-02-17T01:55:42.176Z,4.13
2023-02-17T01:56:42.916Z,3.23
2023-02-17T01:57:44.755Z,3.29
2023-02-17T01:58:47.013Z,3.22
2023-02-17T01:59:45.902Z,2.42
2023-02-17T02:00:43.426Z,1.18
2023-02-17T02:01:40.623Z,2.95
2023-02-17T02:02:39.036Z,3.12
2023-02-17T02:03:39.025Z,3.39
2023-02-17T02:04:40.745Z,3.26
2023-02-17T02:05:40.412Z,2.19
2023-02-17T02:06:43.861Z,2.43
2023-02-17T02:07:43.985Z,3.42
2023-02-17T02:09:34.941Z,3.55
2023-02-17T02:10:31.739Z,2.42
2023-02-17T02:11:28.517Z,3.53
2023-02-17T02:12:29.202Z,2.52
2023-02-17T02:13:26.000Z,3.13
2023-02-17T02:14:23.727Z,2.40
2023-02-17T02:15:25.852Z,2.66
2023-02-17T02:16:53.163Z,4.14
2023-02-17T02:17:55.823Z,4.52
2023-02-17T02:19:31.055Z,4.04
2023-02-17T02:21:04.654Z,4.19
2023-02-17T02:22:31.405Z,4.11
2023-02-17T02:23:46.933Z,4.23
2023-02-17T02:25:09.544Z,4.19
2023-02-17T02:26:41.167Z,4.28
2023-02-17T02:28:05.289Z,4.03
2023-02-17T02:29:39.189Z,4.01
2023-02-17T02:30:56.746Z,3.44
2023-02-17T02:32:18.136Z,4.31
2023-02-17T02:33:39.134Z,2.86
2023-02-17T02:34:49.878Z,3.51
2023-02-17T02:36:03.717Z,2.56
2023-02-17T02:37:17.181Z,4.25
2023-02-17T02:38:40.557Z,4.34
2023-02-17T02:39:46.688Z,3.62
2023-02-17T02:40:51.608Z,4.51
2023-02-17T02:41:48.290Z,4.46
2023-02-17T02:42:46.234Z,4.08
2023-02-17T02:43:45.071Z,4.16
2023-02-17T02:44:42.115Z,3.96
2023-02-17T02:45:39.194Z,4.63
2023-02-17T02:46:36.565Z,3.65
2023-02-17T02:47:53.518Z,4.98
2023-02-17T02:48:51.832Z,5.05
2023-02-17T02:49:48.647Z,3.56
2023-02-17T02:51:19.333Z,4.74
2023-02-17T02:53:04.252Z,4.90
2023-02-17T02:54:18.125Z,5.19
2023-02-17T02:55:29.816Z,5.38
2023-02-17T02:57:03.711Z,5.31
2023-02-17T02:58:47.589Z,4.64
2023-02-17T02:59:53.953Z,4.57
2023-02-17T03:00:54.177Z,4.07
2023-02-17T03:02:05.832Z,3.77
2023-02-17T03:03:17.115Z,2.77
2023-02-17T03:04:31.854Z,3.03
2023-02-17T03:05:37.125Z,3.74
2023-02-17T03:07:08.892Z,3.99
2023-02-17T03:08:15.879Z,3.32
2023-02-17T03:09:24.668Z,4.15
2023-02-17T03:10:22.199Z,4.06
2023-02-17T03:11:32.389Z,4.69
2023-02-17T03:12:30.879Z,3.78
2023-02-17T03:13:27.838Z,4.53
2023-02-17T03:14:26.593Z,4.61
2023-02-17T03:15:33.784Z,3.17
2023-02-17T03:16:32.831Z,3.97
2023-02-17T03:17:33.310Z,4.86
2023-02-17T03:18:32.900Z,4.75
2023-02-17T03:19:29.706Z,5.09
2023-02-17T03:20:30.160Z,4.81
2023-02-17T03:21:37.841Z,4.69
2023-02-17T03:22:42.008Z,5.03
2023-02-17T03:23:38.801Z,4.35
2023-02-17T03:24:36.207Z,4.58
2023-02-17T03:25:33.087Z,5.24
2023-02-17T03:26:30.053Z,4.05
2023-02-17T03:27:27.850Z,4.17
2023-02-17T03:28:24.896Z,4.08
2023-02-17T03:29:21.693Z,4.55
2023-02-17T03:30:18.900Z,4.27
2023-02-17T03:31:16.070Z,4.21
2023-02-17T03:32:13.105Z,4.39
2023-02-17T03:33:22.503Z,3.26
2023-02-17T03:34:21.489Z,2.86
2023-02-17T03:35:26.646Z,2.12
2023-02-17T03:36:23.575Z,1.98
2023-02-17T03:37:20.588Z,3.40
2023-02-17T03:38:17.333Z,-0.54
2023-02-17T03:39:14.165Z,3.22
2023-02-17T03:40:11.398Z,4.20
2023-02-17T03:41:08.502Z,4.07
2023-02-17T03:42:05.417Z,3.78
2023-02-17T03:43:02.161Z,4.12
2023-02-17T03:43:59.023Z,3.79
2023-02-17T03:44:55.747Z,4.17
2023-02-17T03:45:52.733Z,1.84
2023-02-17T03:46:49.594Z,4.57
2023-02-17T03:47:46.419Z,3.99
2023-02-17T03:48:43.502Z,4.11
2023-02-17T03:49:40.251Z,2.05
2023-02-17T03:50:37.022Z,3.94
2023-02-17T03:51:33.856Z,3.85
2023-02-17T03:52:30.747Z,3.42
2023-02-17T03:53:27.532Z,1.57
2023-02-17T03:54:24.290Z,3.02
2023-02-17T03:55:21.068Z,2.74
2023-02-17T03:56:19.658Z,3.05
2023-02-17T03:57:16.390Z,3.64
2023-02-17T03:58:13.300Z,3.28
2023-02-17T03:59:10.176Z,3.23
2023-02-17T04:00:07.783Z,4.09
2023-02-17T04:01:09.212Z,3.79
2023-02-17T04:02:05.981Z,2.90
2023-02-17T04:03:02.759Z,3.23
2023-02-17T04:03:59.606Z,3.01
2023-02-17T04:04:56.366Z,2.10
2023-02-17T04:05:54.621Z,2.41
2023-02-17T04:06:51.424Z,-0.20
2023-02-17T04:07:48.164Z,2.97
2023-02-17T04:08:44.915Z,1.78
2023-02-17T04:09:41.682Z,3.35
2023-02-17T04:10:38.422Z,1.92
2023-02-17T04:11:35.220Z,3.85
2023-02-17T04:12:31.999Z,2.48
2023-02-17T04:13:29.124Z,2.82
2023-02-17T04:14:25.964Z,2.33
2023-02-17T04:15:22.787Z,3.42
2023-02-17T04:16:19.623Z,2.67
2023-02-17T04:17:16.352Z,2.70
2023-02-17T04:18:13.524Z,3.37
2023-02-17T04:19:10.342Z,3.52
2023-02-17T04:20:08.301Z,2.84
2023-02-17T04:21:05.914Z,3.63
2023-02-17T04:22:02.770Z,2.49
2023-02-17T04:23:00.922Z,3.43
2023-02-17T04:24:02.214Z,3.89
2023-02-17T04:24:59.037Z,3.59
2023-02-17T04:25:55.883Z,2.52
2023-02-17T04:26:52.891Z,3.07
2023-02-17T04:27:49.630Z,3.03
2023-02-17T04:28:46.386Z,2.35
2023-02-17T04:29:43.268Z,2.01
2023-02-17T04:30:43.790Z,2.92
2023-02-17T04:31:40.721Z,2.83
2023-02-17T04:32:37.527Z,2.29
2023-02-17T04:33:34.641Z,2.10
2023-02-17T04:34:31.517Z,2.77
2023-02-17T04:35:28.521Z,3.16
2023-02-17T04:36:25.406Z,3.55
2023-02-17T04:37:22.249Z,3.68
2023-02-17T04:38:19.244Z,3.68
2023-02-17T04:39:16.121Z,2.79
2023-02-17T04:40:13.359Z,3.04
2023-02-17T04:41:10.214Z,3.58
2023-02-17T04:42:06.984Z,3.36
2023-02-17T04:43:04.325Z,3.91
2023-02-17T04:44:01.078Z,4.30
2023-02-17T04:44:57.820Z,4.10
2023-02-17T04:45:54.913Z,4.21
2023-02-17T04:46:51.813Z,4.19
2023-02-17T04:47:51.537Z,4.07
2023-02-17T04:48:48.279Z,3.72
2023-02-17T04:49:45.031Z,4.29
2023-02-17T04:50:41.883Z,4.12
2023-02-17T04:51:38.726Z,4.47
2023-02-17T04:52:37.108Z,4.51
2023-02-17T04:53:33.880Z,3.87
2023-02-17T04:54:30.685Z,4.03
2023-02-17T04:55:27.692Z,3.00
2023-02-17T04:56:24.430Z,4.03
2023-02-17T04:57:21.310Z,3.97
2023-02-17T04:58:18.267Z,3.78
2023-02-17T04:59:15.024Z,4.13
2023-02-17T05:00:12.460Z,3.54
2023-02-17T05:01:09.422Z,3.23
2023-02-17T05:02:06.255Z,3.92
2023-02-17T05:03:03.347Z,4.18
2023-02-17T05:04:00.113Z,4.45
2023-02-17T05:04:56.986Z,4.22
2023-02-17T05:05:53.785Z,4.13
2023-02-17T05:06:50.586Z,3.85
2023-02-17T05:07:47.615Z,3.81
2023-02-17T05:08:44.370Z,3.58
2023-02-17T05:09:41.188Z,3.98
2023-02-17T05:10:37.980Z,3.61
2023-02-17T05:11:34.783Z,3.39
2023-02-17T05:12:31.592Z,4.31
2023-02-17T05:13:28.444Z,3.36
2023-02-17T05:14:25.440Z,3.99
2023-02-17T05:15:22.314Z,4.18
2023-02-17T05:16:19.161Z,4.36
2023-02-17T05:17:16.071Z,3.85
2023-02-17T05:18:14.098Z,4.54
2023-02-17T05:19:11.135Z,3.96
2023-02-17T05:20:09.213Z,2.90
2023-02-17T05:21:06.092Z,3.24
2023-02-17T05:22:03.104Z,3.34
2023-02-17T05:22:59.921Z,3.31
2023-02-17T05:23:56.751Z,2.46
2023-02-17T05:24:54.242Z,3.45
2023-02-17T05:25:51.003Z,2.43
2023-02-17T05:26:48.027Z,4.13
2023-02-17T05:27:44.831Z,3.71
2023-02-17T05:28:41.668Z,3.21
2023-02-17T05:29:38.428Z,3.07
2023-02-17T05:30:35.252Z,3.98
2023-02-17T05:31:32.025Z,2.19
2023-02-17T05:32:29.082Z,2.99
2023-02-17T05:33:25.834Z,2.50
2023-02-17T05:34:22.689Z,2.95
2023-02-17T05:35:19.624Z,3.21
2023-02-17T05:36:16.542Z,2.25
2023-02-17T05:37:13.271Z,2.69
2023-02-17T05:38:10.073Z,3.02
2023-02-17T05:39:09.009Z,3.11
2023-02-17T05:40:09.412Z,3.37
2023-02-17T05:41:06.290Z,3.27
2023-02-17T05:42:03.248Z,3.33
2023-02-17T05:43:00.230Z,3.48
2023-02-17T05:43:57.051Z,2.93
2023-02-17T05:44:53.759Z,3.93
2023-02-17T05:45:50.590Z,3.14
2023-02-17T05:46:47.370Z,3.91
2023-02-17T05:47:44.226Z,3.86
2023-02-17T05:48:41.356Z,2.87
2023-02-17T05:49:38.176Z,2.57
2023-02-17T05:50:34.950Z,3.24
2023-02-17T05:51:31.856Z,3.33
2023-02-17T05:52:28.601Z,3.78
2023-02-17T05:53:26.188Z,2.61
2023-02-17T05:54:23.102Z,3.61
2023-02-17T05:55:20.006Z,3.29
2023-02-17T05:56:16.869Z,3.76
2023-02-17T05:57:13.682Z,3.95
2023-02-17T05:58:10.483Z,3.20
2023-02-17T05:59:07.323Z,3.19
2023-02-17T06:00:05.464Z,4.06
2023-02-17T06:01:02.323Z,3.41
2023-02-17T06:01:59.282Z,4.05
2023-02-17T06:02:56.100Z,3.55
2023-02-17T06:03:52.897Z,4.72
2023-02-17T06:04:49.838Z,3.72
2023-02-17T06:05:46.964Z,4.54
2023-02-17T06:06:43.675Z,4.72
2023-02-17T06:07:41.441Z,3.84
2023-02-17T06:08:38.572Z,5.06
2023-02-17T06:09:35.435Z,3.69
2023-02-17T06:10:32.674Z,4.45
2023-02-17T06:11:29.644Z,4.26
2023-02-17T06:12:26.602Z,4.84
2023-02-17T06:13:23.431Z,4.49
2023-02-17T06:14:20.242Z,3.99
2023-02-17T06:15:17.254Z,5.01
2023-02-17T06:16:14.124Z,5.03
2023-02-17T06:17:11.050Z,5.04
2023-02-17T06:18:07.803Z,5.00
2023-02-17T06:19:05.397Z,4.95
2023-02-17T06:20:02.239Z,5.06
2023-02-17T06:20:59.743Z,5.08
2023-02-17T06:21:59.238Z,4.84
2023-02-17T06:22:56.044Z,4.11
2023-02-17T06:23:52.840Z,4.54
2023-02-17T06:24:49.659Z,4.88
2023-02-17T06:25:46.484Z,4.36
2023-02-17T06:26:43.297Z,4.89
2023-02-17T06:27:40.212Z,4.61
2023-02-17T06:28:36.937Z,4.72
2023-02-17T06:29:33.848Z,4.23
2023-02-17T06:30:30.916Z,4.48
2023-02-17T06:31:27.917Z,4.15
2023-02-17T06:32:24.744Z,3.87
2023-02-17T06:33:21.712Z,4.85
2023-02-17T06:34:18.571Z,4.51
2023-02-17T06:35:15.461Z,4.88
2023-02-17T06:36:12.332Z,4.15
2023-02-17T06:37:09.081Z,5.15
2023-02-17T06:38:05.987Z,5.29
2023-02-17T06:39:03.483Z,5.03
2023-02-17T06:40:00.399Z,3.38
2023-02-17T06:41:02.242Z,5.39
2023-02-17T06:41:59.181Z,5.10
2023-02-17T06:42:55.922Z,5.33
2023-02-17T06:43:52.687Z,5.10
2023-02-17T06:44:49.532Z,5.40
2023-02-17T06:45:46.736Z,4.99
2023-02-17T06:46:46.041Z,5.09
2023-02-17T06:47:45.089Z,5.15
2023-02-17T06:48:41.891Z,4.10
2023-02-17T06:49:40.667Z,5.52
2023-02-17T06:50:38.184Z,5.39
2023-02-17T06:51:35.100Z,5.20
2023-02-17T06:52:31.887Z,4.64
2023-02-17T06:53:28.682Z,4.56
2023-02-17T06:54:25.571Z,4.37
2023-02-17T06:55:22.362Z,6.00
2023-02-17T06:56:21.100Z,6.01
2023-02-17T06:57:19.073Z,5.59
2023-02-17T06:58:15.781Z,6.19
2023-02-17T06:59:12.578Z,5.74
2023-02-17T07:00:09.687Z,3.89
2023-02-17T07:01:08.190Z,4.95
2023-02-17T07:02:05.270Z,5.54
2023-02-17T07:03:02.209Z,6.17
2023-02-17T07:03:59.125Z,6.22
2023-02-17T07:04:55.903Z,4.97
2023-02-17T07:05:58.297Z,6.31
2023-02-17T07:06:55.023Z,5.72
2023-02-17T07:07:53.570Z,6.15
2023-02-17T07:08:50.805Z,6.55
2023-02-17T07:09:47.528Z,6.38
2023-02-17T07:10:44.373Z,6.04
2023-02-17T07:11:42.914Z,6.47
2023-02-17T07:12:39.973Z,7.12
2023-02-17T07:13:37.966Z,6.57
2023-02-17T07:14:35.817Z,6.10
2023-02-17T07:15:32.589Z,7.04
2023-02-17T07:16:29.402Z,7.10
2023-02-17T07:17:26.657Z,6.17
2023-02-17T07:18:23.498Z,7.41
2023-02-17T07:19:20.332Z,7.40
2023-02-17T07:20:17.547Z,7.14
2023-02-17T07:21:14.723Z,7.41
2023-02-17T07:22:11.472Z,6.85
2023-02-17T07:23:08.382Z,7.54
2023-02-17T07:24:05.424Z,7.85
2023-02-17T07:25:02.206Z,7.79
2023-02-17T07:26:04.932Z,8.18
2023-02-17T07:27:02.122Z,8.22
2023-02-17T07:27:59.899Z,8.42
2023-02-17T07:28:56.869Z,8.35
2023-02-17T07:29:53.787Z,7.43
2023-02-17T07:30:50.614Z,7.65
2023-02-17T07:31:47.420Z,7.45
2023-02-17T07:32:45.002Z,7.05
2023-02-17T07:33:43.263Z,8.13
2023-02-17T07:34:40.066Z,8.26
2023-02-17T07:35:46.088Z,8.41
2023-02-17T07:36:42.892Z,7.86
2023-02-17T07:37:39.751Z,8.94
2023-02-17T07:38:37.881Z,8.28
2023-02-17T07:39:34.828Z,8.32
2023-02-17T07:40:31.665Z,8.64
2023-02-17T07:41:28.785Z,8.73
2023-02-17T07:42:27.873Z,9.11
2023-02-17T07:43:24.651Z,9.51
2023-02-17T07:44:21.433Z,7.32
2023-02-17T07:45:18.341Z,6.99
2023-02-17T07:46:15.458Z,9.59
2023-02-17T07:47:12.367Z,9.53
2023-02-17T07:48:09.137Z,9.73
2023-02-17T07:49:06.137Z,9.70
2023-02-17T07:50:03.078Z,9.46
2023-02-17T07:51:10.605Z,9.11
2023-02-17T07:52:07.396Z,9.29
2023-02-17T07:53:04.569Z,9.99
2023-02-17T07:54:02.062Z,9.53
2023-02-17T07:54:58.840Z,10.06
2023-02-17T07:55:55.715Z,10.09
2023-02-17T07:56:52.554Z,10.15
2023-02-17T07:57:49.556Z,10.13
2023-02-17T07:58:46.287Z,10.49
2023-02-17T07:59:43.719Z,8.99
2023-02-17T08:00:40.723Z,10.49
2023-02-17T08:01:38.397Z,10.46
2023-02-17T08:02:35.198Z,10.03
2023-02-17T08:03:32.005Z,10.26
2023-02-17T08:04:29.097Z,10.57
2023-02-17T08:05:26.020Z,10.77
2023-02-17T08:06:24.986Z,10.60
2023-02-17T08:07:21.874Z,10.07
2023-02-17T08:08:38.558Z,10.38
2023-02-17T08:09:53.873Z,10.38
2023-02-17T08:11:09.312Z,11.03
2023-02-17T08:12:25.261Z,10.16
2023-02-17T08:13:22.343Z,8.73
2023-02-17T08:14:21.998Z,10.82
2023-02-17T08:15:18.832Z,11.00
2023-02-17T08:16:15.682Z,10.48
2023-02-17T08:17:12.491Z,10.60
2023-02-17T08:18:09.414Z,10.83
2023-02-17T08:19:07.628Z,10.54
2023-02-17T08:20:09.149Z,11.21
2023-02-17T08:21:06.384Z,10.58
2023-02-17T08:22:03.787Z,10.89
2023-02-17T08:23:01.175Z,10.78
2023-02-17T08:23:57.938Z,11.58
2023-02-17T08:24:54.903Z,11.75
2023-02-17T08:25:51.732Z,11.06
2023-02-17T08:26:51.505Z,11.26
2023-02-17T08:27:48.417Z,11.71
2023-02-17T08:28:45.777Z,11.31
2023-02-17T08:29:43.082Z,9.73
2023-02-17T08:30:40.314Z,11.65
2023-02-17T08:31:38.063Z,11.77
2023-02-17T08:32:34.884Z,10.77
2023-02-17T08:33:31.787Z,9.50
2023-02-17T08:34:28.773Z,11.70
2023-02-17T08:35:26.021Z,10.99
2023-02-17T08:36:24.784Z,11.90
2023-02-17T08:37:21.650Z,11.60
2023-02-17T08:38:18.416Z,11.91
2023-02-17T08:39:17.976Z,11.84
2023-02-17T08:40:15.560Z,12.03
2023-02-17T08:41:21.342Z,11.02
2023-02-17T08:42:18.122Z,12.06
2023-02-17T08:43:15.194Z,12.19
2023-02-17T08:44:18.696Z,12.05
2023-02-17T08:45:16.697Z,11.96
2023-02-17T08:46:14.514Z,11.88
2023-02-17T08:47:11.683Z,11.77
2023-02-17T08:48:08.582Z,11.73
2023-02-17T08:49:06.847Z,11.32
2023-02-17T08:50:06.806Z,12.31
2023-02-17T08:51:05.383Z,12.08
2023-02-17T08:52:03.221Z,12.27
2023-02-17T08:53:00.125Z,11.62
2023-02-17T08:54:00.653Z,12.37
2023-02-17T08:54:57.493Z,12.10
2023-02-17T08:55:54.266Z,12.14
2023-02-17T08:56:51.130Z,12.63
2023-02-17T08:57:47.973Z,12.76
2023-02-17T08:58:44.774Z,12.75
2023-02-17T08:59:41.628Z,12.72
2023-02-17T09:00:38.581Z,12.77
2023-02-17T09:01:36.539Z,12.81
2023-02-17T09:02:33.348Z,10.68
2023-02-17T09:03:30.251Z,12.78
2023-02-17T09:04:27.271Z,11.68
2023-02-17T09:05:24.133Z,12.83
2023-02-17T09:06:21.505Z,12.37
2023-02-17T09:07:18.406Z,12.29
2023-02-17T09:08:15.415Z,10.76
2023-02-17T09:09:15.665Z,10.94
2023-02-17T09:10:13.403Z,12.79
2023-02-17T09:11:12.651Z,12.26
2023-02-17T09:12:09.477Z,12.76
2023-02-17T09:13:06.407Z,12.28
2023-02-17T09:14:04.018Z,12.79
2023-02-17T09:15:01.126Z,12.86
2023-02-17T09:15:58.846Z,12.82
2023-02-17T09:16:56.402Z,12.86
2023-02-17T09:17:54.576Z,12.82
2023-02-17T09:18:52.837Z,11.95
2023-02-17T09:19:49.677Z,11.83
2023-02-17T09:20:50.262Z,12.47
2023-02-17T09:21:48.464Z,12.29
2023-02-17T09:22:45.342Z,12.99
2023-02-17T09:23:42.390Z,13.08
2023-02-17T09:24:40.161Z,13.02
2023-02-17T09:25:37.150Z,12.92
2023-02-17T09:26:35.208Z,11.89
2023-02-17T09:27:32.386Z,13.10
2023-02-17T09:28:29.169Z,12.96
2023-02-17T09:29:26.085Z,13.14
2023-02-17T09:30:23.118Z,13.25
2023-02-17T09:31:23.028Z,12.23
2023-02-17T09:32:20.303Z,13.15
2023-02-17T09:33:17.200Z,13.33
2023-02-17T09:34:14.539Z,12.69
2023-02-17T09:35:12.899Z,13.38
2023-02-17T09:36:14.235Z,12.50
2023-02-17T09:37:12.576Z,12.88
2023-02-17T09:38:10.359Z,13.49
2023-02-17T09:39:07.545Z,11.19
2023-02-17T09:40:06.486Z,13.65
2023-02-17T09:41:21.826Z,12.86
2023-02-17T09:42:23.111Z,13.08
2023-02-17T09:43:28.933Z,13.26
2023-02-17T09:44:35.229Z,13.20
2023-02-17T09:45:36.358Z,13.22
2023-02-17T09:46:59.389Z,13.01
2023-02-17T09:48:08.813Z,12.96
2023-02-17T09:49:19.531Z,13.18
2023-02-17T09:50:21.860Z,12.59
2023-02-17T09:51:39.252Z,13.04
2023-02-17T09:52:53.519Z,13.41
2023-02-17T09:54:43.399Z,13.02
2023-02-17T09:55:49.476Z,13.07
2023-02-17T09:56:50.133Z,11.67
2023-02-17T09:57:56.312Z,12.74
2023-02-17T09:59:00.549Z,11.77
2023-02-17T10:00:16.281Z,12.55
2023-02-17T10:01:25.975Z,12.32
2023-02-17T10:02:28.385Z,13.25
2023-02-17T10:03:46.758Z,13.46
2023-02-17T10:04:48.777Z,13.00
2023-02-17T10:06:11.384Z,10.62
2023-02-17T10:07:43.990Z,13.38
2023-02-17T10:08:46.837Z,13.26
2023-02-17T10:09:56.524Z,12.99
2023-02-17T10:11:01.807Z,12.91
2023-02-17T10:12:14.256Z,13.21
2023-02-17T10:13:18.123Z,12.01
2023-02-17T10:14:37.223Z,13.49
2023-02-17T10:15:50.065Z,12.45
2023-02-17T10:16:59.930Z,13.36
2023-02-17T10:18:30.655Z,12.79
2023-02-17T10:19:38.905Z,12.85
2023-02-17T10:20:42.276Z,13.40
2023-02-17T10:21:46.704Z,13.19
2023-02-17T10:22:51.172Z,13.35
2023-02-17T10:23:48.468Z,12.07
2023-02-17T10:24:45.447Z,13.02
2023-02-17T10:26:10.224Z,11.39
2023-02-17T10:27:15.979Z,13.64
2023-02-17T10:28:42.341Z,13.33
2023-02-17T10:29:54.335Z,13.58
2023-02-17T10:31:04.542Z,11.58
2023-02-17T10:32:19.844Z,13.63
2023-02-17T10:33:44.632Z,13.63
2023-02-17T10:35:10.371Z,13.52
2023-02-17T10:36:07.461Z,14.11
2023-02-17T10:37:19.231Z,13.30
2023-02-17T10:38:44.518Z,13.58
2023-02-17T10:39:51.542Z,13.45
2023-02-17T10:40:51.644Z,14.01
2023-02-17T10:41:54.968Z,11.84
2023-02-17T10:42:57.527Z,13.30
2023-02-17T10:43:55.795Z,13.61
2023-02-17T10:45:00.573Z,14.06
2023-02-17T10:46:01.193Z,13.63
2023-02-17T10:46:58.397Z,13.42
2023-02-17T10:48:06.895Z,13.72
2023-02-17T10:49:06.319Z,12.86
2023-02-17T10:50:14.175Z,13.35
2023-02-17T10:51:17.228Z,13.62
2023-02-17T10:52:22.225Z,14.02
2023-02-17T10:53:28.450Z,13.88
2023-02-17T10:54:59.898Z,14.11
2023-02-17T10:56:08.678Z,13.85
2023-02-17T10:57:11.153Z,12.48
2023-02-17T10:58:26.777Z,13.38
2023-02-17T10:59:30.452Z,12.64
2023-02-17T11:00:27.683Z,14.30
2023-02-17T11:01:25.344Z,13.43
2023-02-17T11:02:34.613Z,13.54
2023-02-17T11:03:33.126Z,13.47
2023-02-17T11:04:42.325Z,13.34
2023-02-17T11:05:39.295Z,13.95
2023-02-17T11:06:51.654Z,13.54
2023-02-17T11:07:49.018Z,13.39
2023-02-17T11:08:51.881Z,13.89
2023-02-17T11:10:03.124Z,13.49
2023-02-17T11:11:04.588Z,14.06
2023-02-17T11:12:03.005Z,14.21
2023-02-17T11:13:02.712Z,14.05
2023-02-17T11:14:08.184Z,14.04
2023-02-17T11:15:19.650Z,14.10
2023-02-17T11:16:28.139Z,13.98
2023-02-17T11:17:40.980Z,13.97
2023-02-17T11:18:47.520Z,12.82
2023-02-17T11:19:58.357Z,13.91
2023-02-17T11:21:11.761Z,14.01
2023-02-17T11:22:48.512Z,13.98
2023-02-17T11:23:56.433Z,13.99
2023-02-17T11:25:00.145Z,13.80
2023-02-17T11:26:08.393Z,13.83
2023-02-17T11:27:11.289Z,13.58
2023-02-17T11:28:24.875Z,10.79
2023-02-17T11:29:23.419Z,13.51
2023-02-17T11:30:21.732Z,14.00
2023-02-17T11:31:28.843Z,13.86
2023-02-17T11:32:32.751Z,14.00
2023-02-17T11:33:34.154Z,14.03
2023-02-17T11:34:34.871Z,13.14
2023-02-17T11:35:37.531Z,14.07
2023-02-17T11:36:34.335Z,14.15
2023-02-17T11:37:33.001Z,14.15
2023-02-17T11:38:43.138Z,14.04
2023-02-17T11:39:49.292Z,13.98
2023-02-17T11:41:12.394Z,14.02
2023-02-17T11:42:27.084Z,12.85
2023-02-17T11:43:24.686Z,13.38
2023-02-17T11:44:29.320Z,13.58
2023-02-17T11:45:39.690Z,14.39
2023-02-17T11:46:55.174Z,14.43
2023-02-17T11:47:57.632Z,14.20
2023-02-17T11:49:15.667Z,14.32
2023-02-17T11:50:49.874Z,14.22
2023-02-17T11:52:04.620Z,14.22
2023-02-17T11:53:10.062Z,14.20
2023-02-17T11:54:23.052Z,14.39
2023-02-17T11:55:54.133Z,14.33
2023-02-17T11:57:05.542Z,14.00
2023-02-17T11:58:22.484Z,14.33
2023-02-17T11:59:33.785Z,14.27
2023-02-17T12:00:36.704Z,14.31
2023-02-17T12:01:36.559Z,14.38
2023-02-17T12:03:03.630Z,14.18
2023-02-17T12:04:15.750Z,14.24
2023-02-17T12:05:31.944Z,13.41
2023-02-17T12:06:41.948Z,14.40
2023-02-17T12:07:38.664Z,14.59
2023-02-17T12:08:47.730Z,13.69
2023-02-17T12:09:44.507Z,14.40
2023-02-17T12:11:08.469Z,13.74
2023-02-17T12:12:21.976Z,14.42
2023-02-17T12:13:24.729Z,14.35
2023-02-17T12:14:44.494Z,14.20
2023-02-17T12:15:56.391Z,14.21
2023-02-17T12:17:20.582Z,14.37
2023-02-17T12:18:41.221Z,14.34
2023-02-17T12:19:56.791Z,14.37
2023-02-17T12:21:02.552Z,14.49
2023-02-17T12:22:17.562Z,14.42
2023-02-17T12:23:38.752Z,14.06
2023-02-17T12:25:00.286Z,14.23
2023-02-17T12:26:06.890Z,12.78
2023-02-17T12:27:11.260Z,13.71
2023-02-17T12:28:32.311Z,14.17
2023-02-17T12:30:04.671Z,14.35
2023-02-17T12:31:16.774Z,14.11
2023-02-17T12:32:56.189Z,14.30
2023-02-17T12:34:21.857Z,13.58
2023-02-17T12:35:26.644Z,14.48
2023-02-17T12:36:31.477Z,14.43
2023-02-17T12:37:37.200Z,14.44
2023-02-17T12:38:43.976Z,14.31
2023-02-17T12:39:59.608Z,13.32
2023-02-17T12:41:34.622Z,13.80
2023-02-17T12:42:51.439Z,14.44
2023-02-17T12:43:57.684Z,13.40
2023-02-17T12:45:00.155Z,14.44
2023-02-17T12:46:04.068Z,14.35
2023-02-17T12:47:16.925Z,14.47
2023-02-17T12:48:35.497Z,14.13
2023-02-17T12:50:04.524Z,14.27
2023-02-17T12:51:13.300Z,14.50
2023-02-17T12:52:30.865Z,14.50
2023-02-17T12:53:42.993Z,14.62
2023-02-17T12:54:55.459Z,13.72
2023-02-17T12:55:58.572Z,14.65
2023-02-17T12:57:02.903Z,14.73
2023-02-17T12:58:25.621Z,14.32
2023-02-17T12:59:34.714Z,14.46
2023-02-17T13:01:07.210Z,14.72
2023-02-17T13:02:12.514Z,14.69
2023-02-17T13:03:09.639Z,14.99
2023-02-17T13:04:07.208Z,14.59
2023-02-17T13:05:19.569Z,14.61
2023-02-17T13:06:33.448Z,11.76
2023-02-17T13:07:43.656Z,14.91
2023-02-17T13:08:54.144Z,14.73
2023-02-17T13:09:55.590Z,14.85
2023-02-17T13:11:07.373Z,14.35
2023-02-17T13:12:23.909Z,14.62
2023-02-17T13:13:30.284Z,13.34
2023-02-17T13:14:39.853Z,13.81
2023-02-17T13:15:39.143Z,14.98
2023-02-17T13:16:44.157Z,15.05
2023-02-17T13:18:01.254Z,14.67
2023-02-17T13:19:08.510Z,14.69
2023-02-17T13:20:11.303Z,14.59
2023-02-17T13:21:20.561Z,14.71
2023-02-17T13:22:23.993Z,14.68
2023-02-17T13:23:39.963Z,14.67
2023-02-17T13:24:39.798Z,14.78
2023-02-17T13:25:37.838Z,13.79
2023-02-17T13:26:43.117Z,14.19
2023-02-17T13:27:41.253Z,14.63
2023-02-17T13:28:41.100Z,15.08
2023-02-17T13:29:38.898Z,15.24
2023-02-17T13:30:42.051Z,14.11
2023-02-17T13:31:51.833Z,14.95
2023-02-17T13:33:26.809Z,15.16
2023-02-17T13:34:31.224Z,13.84
2023-02-17T13:35:27.964Z,15.01
2023-02-17T13:36:27.576Z,15.02